Time;durP1;ratioP1;P1;durP2;ratioP2;P2;SDS_P1;SDS_P2;PMS_P1;PMS_P2;Temp;Humidity;BMP_temperature;BMP_pressure;BME280_temperature;BME280_humidity;BME280_pressure;Samples;Min_cycle;Max_cycle;Signal;HPM_P1;HPM_P2
2022/09/16 00:00:43;;;;;;;0.80;0.70;;;26.10;99.60;;;;;;5095223;28;20443;-81
2022/09/16 00:03:10;;;;;;;0.90;0.63;;;26.00;99.50;;;;;;5095658;28;20460;-81
2022/09/16 00:05:41;;;;;;;1.00;0.70;;;26.00;99.50;;;;;;5095223;28;20440;-81
2022/09/16 00:08:08;;;;;;;0.90;0.70;;;26.00;99.50;;;;;;5095781;28;20439;-81
2022/09/16 00:10:35;;;;;;;0.90;0.80;;;25.90;99.50;;;;;;5095525;28;20434;-90
2022/09/16 00:13:02;;;;;;;0.97;0.87;;;25.90;99.50;;;;;;5095377;28;20467;-90
2022/09/16 00:15:29;;;;;;;1.30;0.77;;;25.90;99.40;;;;;;5095115;28;20443;-84
2022/09/16 00:17:58;;;;;;;1.17;0.80;;;25.90;99.40;;;;;;5095428;28;20443;-81
2022/09/16 00:20:25;;;;;;;0.90;0.80;;;25.90;99.40;;;;;;5095166;28;20484;-81
2022/09/16 00:22:52;;;;;;;0.90;0.80;;;25.90;99.20;;;;;;5095147;28;20483;-81
2022/09/16 00:25:18;;;;;;;0.80;0.67;;;25.90;99.20;;;;;;5094833;28;20446;-81
2022/09/16 00:27:47;;;;;;;0.80;0.70;;;25.90;99.30;;;;;;5095067;28;20432;-81
2022/09/16 00:30:14;;;;;;;0.80;0.70;;;25.90;99.20;;;;;;5094885;28;20442;-81
2022/09/16 00:32:41;;;;;;;0.90;0.80;;;25.90;99.40;;;;;;5094950;28;20828;-81
2022/09/16 00:35:10;;;;;;;1.33;0.80;;;25.90;99.40;;;;;;5094500;28;20495;-81
2022/09/16 00:37:36;;;;;;;1.10;1.00;;;25.90;99.40;;;;;;5094798;28;20438;-90
2022/09/16 00:40:04;;;;;;;0.83;0.73;;;25.90;99.40;;;;;;5094774;28;20469;-90
2022/09/16 00:42:31;;;;;;;1.10;0.63;;;25.90;99.40;;;;;;5094907;28;20484;-81
2022/09/16 00:45:00;;;;;;;0.93;0.80;;;25.90;99.40;;;;;;5094226;28;20443;-81
2022/09/16 00:47:33;;;;;;;0.80;0.60;;;25.90;99.20;;;;;;5094698;28;20466;-80
2022/09/16 00:50:05;;;;;;;0.80;0.70;;;25.90;99.20;;;;;;5094718;28;20438;-86
2022/09/16 00:52:34;;;;;;;0.80;0.70;;;25.90;99.30;;;;;;5094729;28;20539;-87
2022/09/16 00:55:03;;;;;;;1.67;0.93;;;25.90;99.20;;;;;;5094413;28;20445;-82
2022/09/16 00:57:30;;;;;;;0.80;0.70;;;25.80;99.20;;;;;;5094566;28;20957;-80
2022/09/16 00:59:58;;;;;;;1.40;0.70;;;25.80;99.10;;;;;;5094508;28;20432;-81
2022/09/16 01:02:27;;;;;;;1.00;0.70;;;25.80;99.20;;;;;;5094315;28;20994;-90
2022/09/16 01:04:57;;;;;;;1.40;0.90;;;25.90;99.20;;;;;;5094078;28;20447;-81
2022/09/16 01:07:31;;;;;;;1.00;0.80;;;25.80;99.10;;;;;;5094278;28;20463;-81
2022/09/16 01:09:59;;;;;;;0.70;0.60;;;26.00;99.30;;;;;;5094355;28;20443;-91
2022/09/16 01:12:28;;;;;;;1.40;0.80;;;25.80;99.40;;;;;;5093453;28;20444;-81
2022/09/16 01:14:57;;;;;;;0.83;0.73;;;25.90;99.30;;;;;;5093661;28;20432;-81
2022/09/16 01:17:38;;;;;;;0.80;0.80;;;25.80;99.40;;;;;;5094028;28;20870;-84
2022/09/16 01:20:44;;;;;;;0.80;0.70;;;25.90;99.50;;;;;;5109804;28;20473;-81
2022/09/16 01:23:39;;;;;;;0.90;0.70;;;25.90;99.40;;;;;;5086771;28;20482;-82
2022/09/16 01:26:23;;;;;;;1.13;1.03;;;25.90;99.50;;;;;;5059881;28;20446;-90
2022/09/16 01:29:16;;;;;;;0.90;0.60;;;25.90;99.50;;;;;;5094056;28;20783;-81
2022/09/16 01:31:50;;;;;;;0.83;0.70;;;25.90;99.50;;;;;;5097388;28;20455;-79
2022/09/16 01:34:24;;;;;;;1.10;1.00;;;25.90;99.50;;;;;;5114310;28;20765;-81
2022/09/16 01:36:59;;;;;;;0.90;0.70;;;25.80;99.40;;;;;;5113957;28;20439;-81
2022/09/16 01:39:31;;;;;;;0.80;0.70;;;25.80;99.40;;;;;;5114438;28;20948;-81
2022/09/16 01:42:13;;;;;;;0.70;0.60;;;25.80;99.50;;;;;;5111918;28;20471;-82
2022/09/16 01:44:46;;;;;;;0.80;0.60;;;25.80;99.80;;;;;;5114094;28;20450;-81
2022/09/16 01:47:20;;;;;;;0.80;0.70;;;25.90;99.50;;;;;;5114055;28;20929;-81
2022/09/16 01:49:57;;;;;;;0.83;0.67;;;25.80;99.50;;;;;;5114111;28;20447;-81
2022/09/16 01:52:32;;;;;;;0.70;0.60;;;25.80;99.50;;;;;;5095048;28;20857;-81
2022/09/16 01:55:03;;;;;;;0.80;0.70;;;25.80;99.50;;;;;;5093853;28;20797;-81
2022/09/16 01:57:36;;;;;;;0.90;0.60;;;25.80;99.50;;;;;;5093874;28;20450;-82
2022/09/16 02:00:07;;;;;;;0.90;0.70;;;25.90;99.50;;;;;;5106320;28;20440;-87
2022/09/16 02:02:40;;;;;;;0.80;0.63;;;25.80;99.50;;;;;;5113870;28;20837;-87
2022/09/16 02:05:11;;;;;;;0.90;0.70;;;25.90;99.60;;;;;;5113911;28;20451;-90
2022/09/16 02:07:43;;;;;;;0.90;0.63;;;25.90;99.80;;;;;;5113983;28;20446;-81
2022/09/16 02:10:16;;;;;;;0.70;0.60;;;25.90;99.80;;;;;;5114023;28;20792;-81
2022/09/16 02:12:45;;;;;;;0.80;0.70;;;25.80;99.70;;;;;;5113921;28;20435;-81
2022/09/16 02:15:17;;;;;;;1.37;0.80;;;25.90;99.80;;;;;;5114028;28;20457;-81
2022/09/16 02:17:50;;;;;;;0.90;0.80;;;25.90;99.90;;;;;;5113848;28;20767;-81
2022/09/16 02:20:21;;;;;;;0.90;0.70;;;25.90;99.80;;;;;;5099273;28;20496;-81
2022/09/16 02:22:51;;;;;;;1.20;0.80;;;25.80;99.60;;;;;;5093470;28;20486;-81
2022/09/16 02:25:19;;;;;;;0.80;0.70;;;25.80;99.70;;;;;;5097606;28;20443;-81
2022/09/16 02:27:49;;;;;;;0.90;0.70;;;25.80;99.80;;;;;;5097785;28;20440;-81
2022/09/16 02:30:18;;;;;;;1.00;0.70;;;25.90;99.80;;;;;;5097271;28;20440;-80
2022/09/16 02:32:48;;;;;;;0.80;0.70;;;25.90;99.60;;;;;;5097204;28;20460;-81
2022/09/16 02:35:19;;;;;;;0.80;0.70;;;25.90;99.60;;;;;;5097378;28;20440;-81
2022/09/16 02:37:50;;;;;;;0.80;0.60;;;25.80;99.50;;;;;;5097417;28;20517;-81
2022/09/16 02:40:21;;;;;;;0.80;0.70;;;25.80;99.60;;;;;;5109600;28;20431;-81
2022/09/16 02:42:48;;;;;;;0.80;0.70;;;25.90;99.50;;;;;;5117545;28;20496;-81
2022/09/16 02:45:15;;;;;;;0.90;0.70;;;25.80;99.50;;;;;;5117438;28;20434;-80
2022/09/16 02:47:52;;;;;;;0.80;0.70;;;25.80;99.60;;;;;;5117478;28;20447;-81
2022/09/16 02:50:25;;;;;;;2.13;0.80;;;25.80;99.60;;;;;;5107563;28;20933;-80
2022/09/16 02:52:59;;;;;;;0.90;0.70;;;25.90;99.60;;;;;;5096694;28;20533;-80
2022/09/16 02:55:36;;;;;;;0.90;0.70;;;25.90;99.60;;;;;;5096875;28;20435;-80
2022/09/16 02:58:03;;;;;;;1.07;0.77;;;25.90;99.50;;;;;;5096877;28;20927;-80
2022/09/16 03:00:32;;;;;;;1.00;0.90;;;25.80;99.40;;;;;;5110770;28;20867;-90
2022/09/16 03:03:02;;;;;;;1.00;0.70;;;25.90;99.50;;;;;;5117217;28;20486;-90
2022/09/16 03:05:29;;;;;;;1.37;0.80;;;25.90;99.40;;;;;;5112275;28;20519;-86
2022/09/16 03:07:57;;;;;;;0.90;0.80;;;25.80;99.40;;;;;;5096706;28;20812;-81
2022/09/16 03:10:29;;;;;;;0.90;0.80;;;25.80;99.50;;;;;;5106818;28;20922;-81
2022/09/16 03:13:04;;;;;;;0.80;0.77;;;25.80;99.50;;;;;;5116939;28;20792;-81
2022/09/16 03:15:41;;;;;;;1.53;0.70;;;25.80;99.60;;;;;;5116819;28;20936;-89
2022/09/16 03:18:22;;;;;;;0.90;0.60;;;25.80;99.50;;;;;;5116910;28;20473;-81
2022/09/16 03:20:55;;;;;;;0.90;0.70;;;25.80;99.40;;;;;;5116278;28;20496;-81
2022/09/16 03:23:37;;;;;;;1.20;0.80;;;25.80;99.60;;;;;;5114259;28;20482;-81
2022/09/16 03:26:13;;;;;;;0.90;0.80;;;25.80;99.70;;;;;;5117248;28;20447;-78
2022/09/16 03:28:53;;;;;;;0.80;0.60;;;25.80;99.60;;;;;;5116507;28;20446;-88
2022/09/16 03:31:27;;;;;;;1.20;0.80;;;25.90;99.90;;;;;;5115393;28;20516;-81
2022/09/16 03:34:05;;;;;;;1.00;0.83;;;25.80;99.50;;;;;;5116938;28;20441;-90
2022/09/16 03:36:37;;;;;;;1.53;0.90;;;25.80;99.50;;;;;;5116657;28;20435;-89
2022/09/16 03:39:05;;;;;;;2.70;0.80;;;25.80;99.70;;;;;;5117105;28;20435;-86
2022/09/16 03:41:33;;;;;;;2.20;0.80;;;25.80;99.60;;;;;;5116322;28;20445;-82
2022/09/16 03:44:00;;;;;;;0.80;0.70;;;25.80;99.60;;;;;;5116389;28;20581;-87
2022/09/16 03:46:28;;;;;;;0.90;0.80;;;25.80;99.70;;;;;;5116694;28;20447;-82
2022/09/16 03:48:56;;;;;;;0.93;0.77;;;25.80;99.70;;;;;;5116897;28;20844;-88
2022/09/16 03:51:24;;;;;;;1.57;0.70;;;25.80;99.60;;;;;;5116211;28;20429;-82
2022/09/16 03:53:51;;;;;;;0.80;0.70;;;25.80;99.60;;;;;;5104337;28;20435;-83
2022/09/16 03:56:18;;;;;;;0.87;0.77;;;25.80;99.60;;;;;;5096206;28;20798;-83
2022/09/16 03:58:47;;;;;;;1.07;0.80;;;25.80;99.90;;;;;;5114149;28;20435;-82
2022/09/16 04:01:13;;;;;;;1.00;0.77;;;25.80;99.70;;;;;;5115790;28;20456;-81
2022/09/16 04:03:41;;;;;;;6.33;1.23;;;25.90;99.90;;;;;;5108781;28;20548;-88
2022/09/16 04:06:09;;;;;;;3.43;1.23;;;25.80;99.20;;;;;;5107111;28;20440;-82
2022/09/16 04:08:36;;;;;;;1.33;0.80;;;25.70;98.70;;;;;;5095509;28;20795;-82
2022/09/16 04:11:05;;;;;;;1.10;0.80;;;25.70;99.10;;;;;;5095343;28;20535;-82
2022/09/16 04:13:32;;;;;;;1.10;1.00;;;25.80;99.50;;;;;;5095369;28;20458;-82
2022/09/16 04:16:00;;;;;;;1.53;0.80;;;25.80;99.70;;;;;;5093685;28;20444;-83
2022/09/16 04:18:27;;;;;;;0.90;0.73;;;25.80;99.70;;;;;;5093399;28;20435;-82
2022/09/16 04:20:56;;;;;;;1.00;0.90;;;25.80;99.60;;;;;;5093881;28;20442;-82
2022/09/16 04:23:25;;;;;;;1.00;0.90;;;25.80;99.70;;;;;;5093923;28;20853;-81
2022/09/16 04:25:56;;;;;;;1.30;0.90;;;25.80;99.70;;;;;;5093865;28;20448;-82
2022/09/16 04:28:23;;;;;;;2.17;1.07;;;25.80;99.60;;;;;;5093712;28;20439;-85
2022/09/16 04:30:50;;;;;;;2.27;0.90;;;25.80;99.70;;;;;;5094087;28;20432;-82
2022/09/16 04:33:18;;;;;;;1.10;0.90;;;25.70;99.70;;;;;;5095122;28;20440;-82
2022/09/16 04:35:45;;;;;;;1.00;0.80;;;25.80;99.90;;;;;;5095083;28;20486;-82
2022/09/16 04:38:11;;;;;;;2.73;1.10;;;25.80;99.70;;;;;;5095314;28;20448;-82
2022/09/16 04:40:40;;;;;;;1.37;0.90;;;25.80;99.70;;;;;;5094912;28;21018;-83
2022/09/16 04:43:06;;;;;;;1.00;0.80;;;25.70;99.70;;;;;;5094842;28;20577;-82
2022/09/16 04:45:33;;;;;;;1.43;0.90;;;25.80;99.90;;;;;;5094757;28;20442;-82
2022/09/16 04:48:00;;;;;;;1.27;0.90;;;25.80;99.90;;;;;;5093144;28;20448;-84
2022/09/16 04:50:27;;;;;;;2.60;0.87;;;25.80;99.80;;;;;;5094703;28;20530;-82
2022/09/16 04:52:54;;;;;;;2.03;0.90;;;25.70;99.60;;;;;;5094560;28;20448;-82
2022/09/16 04:55:22;;;;;;;1.00;0.80;;;25.80;99.60;;;;;;5094591;28;20533;-82
2022/09/16 04:57:50;;;;;;;0.93;0.70;;;25.70;99.60;;;;;;5094906;28;20448;-82
2022/09/16 05:00:17;;;;;;;1.13;0.90;;;25.70;99.50;;;;;;5094543;28;20499;-82
2022/09/16 05:02:45;;;;;;;1.53;1.00;;;25.80;99.50;;;;;;5094302;28;20478;-82
2022/09/16 05:05:12;;;;;;;1.90;1.03;;;25.70;99.40;;;;;;5086386;28;21332;-82
2022/09/16 05:07:39;;;;;;;0.90;0.73;;;25.70;99.80;;;;;;5094238;28;20446;-82
2022/09/16 05:10:07;;;;;;;1.10;1.00;;;25.70;99.50;;;;;;5094207;28;20844;-89
2022/09/16 05:12:33;;;;;;;1.20;0.90;;;25.70;99.40;;;;;;5093869;28;20442;-83
2022/09/16 05:15:02;;;;;;;1.20;0.80;;;25.70;99.30;;;;;;5093064;28;20450;-89
2022/09/16 05:17:29;;;;;;;1.10;1.00;;;25.70;99.30;;;;;;5093466;28;20436;-82
2022/09/16 05:19:56;;;;;;;1.03;0.83;;;25.70;99.40;;;;;;5095889;28;20472;-82
2022/09/16 05:22:23;;;;;;;1.00;0.80;;;25.70;99.50;;;;;;5097580;28;20419;-83
2022/09/16 05:24:50;;;;;;;1.83;0.87;;;25.70;99.50;;;;;;5096738;28;20441;-87
2022/09/16 05:27:17;;;;;;;2.63;1.00;;;25.70;99.50;;;;;;5096047;28;20440;-82
2022/09/16 05:29:44;;;;;;;1.03;0.93;;;25.70;99.50;;;;;;5094336;28;20840;-81
2022/09/16 05:32:12;;;;;;;1.30;1.00;;;25.70;99.50;;;;;;5093892;28;20509;-88
2022/09/16 05:34:39;;;;;;;0.83;0.80;;;25.70;99.50;;;;;;5094236;28;20446;-82
2022/09/16 05:37:06;;;;;;;0.90;0.80;;;25.70;99.40;;;;;;5094286;28;20523;-82
2022/09/16 05:39:32;;;;;;;1.10;1.00;;;25.70;99.40;;;;;;5093977;28;20444;-84
2022/09/16 05:42:00;;;;;;;1.40;0.90;;;25.70;99.40;;;;;;5094007;28;20440;-85
2022/09/16 05:44:28;;;;;;;1.27;0.90;;;25.70;99.60;;;;;;5093889;28;20486;-82
2022/09/16 05:46:55;;;;;;;1.10;0.80;;;25.70;99.60;;;;;;5093809;28;20523;-81
2022/09/16 05:49:23;;;;;;;1.43;1.20;;;25.70;99.60;;;;;;5093836;28;20440;-89
2022/09/16 05:51:51;;;;;;;1.77;1.10;;;25.70;99.60;;;;;;5093945;28;20447;-82
2022/09/16 05:54:18;;;;;;;1.97;1.37;;;25.70;99.60;;;;;;5093638;28;20451;-81
2022/09/16 05:56:46;;;;;;;1.47;0.90;;;25.70;99.50;;;;;;5093496;28;20440;-80
2022/09/16 05:59:14;;;;;;;1.20;1.10;;;25.70;99.60;;;;;;5093363;28;20460;-81
2022/09/16 06:01:41;;;;;;;1.20;1.10;;;25.70;99.60;;;;;;5093472;28;20466;-88
2022/09/16 06:04:11;;;;;;;1.20;1.10;;;25.70;99.50;;;;;;5093337;28;20481;-81
2022/09/16 06:06:41;;;;;;;1.20;1.00;;;25.70;99.60;;;;;;5093337;28;20436;-81
2022/09/16 06:09:11;;;;;;;1.10;0.80;;;25.70;99.50;;;;;;5093874;28;20444;-81
2022/09/16 06:11:40;;;;;;;1.47;1.37;;;25.70;99.40;;;;;;5093605;28;20503;-81
2022/09/16 06:14:07;;;;;;;1.20;1.07;;;25.70;99.40;;;;;;5093097;28;20530;-81
2022/09/16 06:16:35;;;;;;;1.10;1.00;;;25.70;99.40;;;;;;5093364;28;20436;-81
2022/09/16 06:19:03;;;;;;;1.07;0.97;;;25.70;99.40;;;;;;5093213;28;20475;-88
2022/09/16 06:21:30;;;;;;;1.77;0.80;;;25.70;99.40;;;;;;5093272;28;20795;-88
2022/09/16 06:23:59;;;;;;;1.13;1.03;;;25.70;99.30;;;;;;5093187;28;20480;-82
2022/09/16 06:26:27;;;;;;;1.20;1.10;;;25.70;99.30;;;;;;5093647;28;20447;-82
2022/09/16 06:28:55;;;;;;;1.50;1.00;;;25.70;99.30;;;;;;5093310;28;20458;-81
2022/09/16 06:31:23;;;;;;;1.13;0.90;;;25.70;99.30;;;;;;5093291;28;20988;-88
2022/09/16 06:33:50;;;;;;;1.00;0.80;;;25.70;99.30;;;;;;5093096;28;20452;-80
2022/09/16 06:36:19;;;;;;;1.87;0.90;;;25.70;99.20;;;;;;5093178;28;20432;-81
2022/09/16 06:38:47;;;;;;;1.20;1.00;;;25.70;99.20;;;;;;5093356;28;20816;-81
2022/09/16 06:41:16;;;;;;;2.00;1.10;;;25.70;99.10;;;;;;5093183;28;20806;-81
2022/09/16 06:43:43;;;;;;;1.00;0.90;;;25.70;99.00;;;;;;5093045;28;20482;-87
2022/09/16 06:46:14;;;;;;;1.03;0.90;;;25.70;99.00;;;;;;5093065;28;20428;-81
2022/09/16 06:48:42;;;;;;;1.00;0.83;;;25.70;99.10;;;;;;5093218;28;20464;-80
2022/09/16 06:51:13;;;;;;;1.00;0.87;;;25.70;98.60;;;;;;5093056;28;20957;-87
2022/09/16 06:53:40;;;;;;;1.00;0.90;;;25.70;94.90;;;;;;5093343;28;20447;-81
2022/09/16 06:56:09;;;;;;;1.00;0.80;;;25.60;95.80;;;;;;5092953;28;20438;-81
2022/09/16 06:58:40;;;;;;;1.10;0.80;;;25.70;91.00;;;;;;5093263;28;20998;-89
2022/09/16 07:01:07;;;;;;;1.27;1.17;;;25.70;84.00;;;;;;5093121;28;20986;-81
2022/09/16 07:03:37;;;;;;;1.10;0.90;;;25.60;80.60;;;;;;5093081;28;20480;-88
2022/09/16 07:06:05;;;;;;;1.20;0.93;;;25.60;78.70;;;;;;5093427;28;20447;-88
2022/09/16 07:08:33;;;;;;;1.33;0.93;;;25.60;77.40;;;;;;5093017;28;20440;-87
2022/09/16 07:11:02;;;;;;;0.90;0.77;;;25.60;76.40;;;;;;5094782;28;20444;-89
2022/09/16 07:13:29;;;;;;;1.03;0.93;;;25.60;76.10;;;;;;5096757;28;20439;-83
2022/09/16 07:16:00;;;;;;;1.37;0.93;;;25.60;75.40;;;;;;5096517;28;20436;-82
2022/09/16 07:18:28;;;;;;;1.00;0.80;;;25.60;75.00;;;;;;5096367;28;20794;-82
2022/09/16 07:21:02;;;;;;;1.10;1.00;;;25.60;75.00;;;;;;5096566;28;20959;-81
2022/09/16 07:23:30;;;;;;;0.90;0.80;;;25.60;74.80;;;;;;5096492;28;20479;-81
2022/09/16 07:26:01;;;;;;;0.90;0.77;;;25.60;75.10;;;;;;5096653;28;20436;-82
2022/09/16 07:28:28;;;;;;;1.00;0.90;;;25.60;75.00;;;;;;5097306;28;20515;-82
2022/09/16 07:30:55;;;;;;;1.10;0.97;;;25.60;75.00;;;;;;5096898;28;20460;-82
2022/09/16 07:33:23;;;;;;;1.00;0.90;;;25.60;75.40;;;;;;5096489;28;20948;-82
2022/09/16 07:35:50;;;;;;;1.00;0.90;;;25.60;75.20;;;;;;5096250;28;20487;-81
2022/09/16 07:38:17;;;;;;;1.23;0.97;;;25.60;75.90;;;;;;5096251;28;20519;-81
2022/09/16 07:40:44;;;;;;;1.00;0.80;;;25.60;75.30;;;;;;5096502;28;20526;-81
2022/09/16 07:43:11;;;;;;;1.20;1.03;;;25.60;74.20;;;;;;5096061;28;20440;-80
2022/09/16 07:45:37;;;;;;;1.53;0.87;;;25.60;74.50;;;;;;5095793;28;20472;-80
2022/09/16 07:48:04;;;;;;;1.00;0.90;;;25.60;74.10;;;;;;5095868;28;20885;-81
2022/09/16 07:50:32;;;;;;;1.23;0.90;;;25.60;73.80;;;;;;5095907;28;20432;-88
2022/09/16 07:52:59;;;;;;;1.00;0.90;;;25.60;73.60;;;;;;5096423;28;20442;-85
2022/09/16 07:55:26;;;;;;;0.90;0.80;;;25.60;73.40;;;;;;5096142;28;20523;-82
2022/09/16 07:57:53;;;;;;;1.00;0.87;;;25.60;74.10;;;;;;5095958;28;20927;-82
2022/09/16 08:00:20;;;;;;;0.90;0.80;;;25.60;73.80;;;;;;5096094;28;20450;-82
2022/09/16 08:02:47;;;;;;;1.07;0.97;;;25.70;73.80;;;;;;5095846;28;20815;-82
2022/09/16 08:05:15;;;;;;;1.30;0.70;;;25.60;73.50;;;;;;5095742;28;20483;-81
2022/09/16 08:07:43;;;;;;;1.10;1.00;;;25.60;73.50;;;;;;5095875;28;20544;-89
2022/09/16 08:10:10;;;;;;;0.90;0.80;;;25.70;74.20;;;;;;5095585;28;20446;-82
2022/09/16 08:12:37;;;;;;;1.10;0.90;;;25.60;73.40;;;;;;5095667;28;20472;-82
2022/09/16 08:15:04;;;;;;;1.10;0.97;;;25.60;73.70;;;;;;5095754;28;20434;-85
2022/09/16 08:17:31;;;;;;;1.10;1.00;;;25.70;73.20;;;;;;5095336;28;20444;-82
2022/09/16 08:19:57;;;;;;;1.03;0.90;;;25.60;73.20;;;;;;5095361;28;20566;-85
2022/09/16 08:22:24;;;;;;;1.00;0.90;;;25.60;73.30;;;;;;5095112;28;20986;-83
2022/09/16 08:24:52;;;;;;;1.70;0.90;;;25.60;73.60;;;;;;5095130;28;20484;-81
2022/09/16 08:27:19;;;;;;;1.03;0.93;;;25.60;73.40;;;;;;5095686;28;20436;-81
2022/09/16 08:29:46;;;;;;;0.90;0.80;;;25.70;73.10;;;;;;5095698;28;20443;-81
2022/09/16 08:32:13;;;;;;;1.00;0.70;;;25.70;73.60;;;;;;5095219;28;20989;-87
2022/09/16 08:34:40;;;;;;;0.90;0.80;;;25.60;73.00;;;;;;5095342;28;20450;-81
2022/09/16 08:37:07;;;;;;;1.03;0.93;;;25.60;73.00;;;;;;5095201;28;20440;-84
2022/09/16 08:39:34;;;;;;;1.00;0.90;;;25.60;73.20;;;;;;5095351;28;20506;-88
2022/09/16 08:42:30;;;;;;;1.43;0.90;;;25.70;73.10;;;;;;5094945;28;20448;-88
2022/09/16 08:45:05;;;;;;;0.80;0.80;;;25.70;72.90;;;;;;5094989;28;20490;-82
2022/09/16 08:47:43;;;;;;;1.10;0.80;;;25.60;73.00;;;;;;5094998;28;20450;-89
2022/09/16 08:50:16;;;;;;;0.90;0.80;;;25.60;72.80;;;;;;5094973;28;20442;-82
2022/09/16 08:52:44;;;;;;;0.90;0.80;;;25.60;73.30;;;;;;5095069;28;20445;-81
2022/09/16 08:55:15;;;;;;;1.80;0.90;;;25.60;73.40;;;;;;5094743;28;20952;-81
2022/09/16 08:57:53;;;;;;;0.90;0.80;;;25.60;72.80;;;;;;5094968;28;20489;-82
2022/09/16 09:00:20;;;;;;;1.07;0.93;;;25.70;72.90;;;;;;5094550;28;20927;-81
2022/09/16 09:02:52;;;;;;;0.80;0.70;;;25.60;72.90;;;;;;5094529;28;20551;-81
2022/09/16 09:05:27;;;;;;;0.90;0.80;;;25.70;72.90;;;;;;5094818;28;20998;-81
2022/09/16 09:08:06;;;;;;;1.63;1.00;;;25.60;72.70;;;;;;5094948;28;21044;-81
2022/09/16 09:10:40;;;;;;;1.30;0.80;;;25.70;72.80;;;;;;5096275;28;20518;-89
2022/09/16 09:13:17;;;;;;;0.90;0.83;;;25.60;72.30;;;;;;5094466;28;20522;-83
2022/09/16 09:15:47;;;;;;;0.90;0.80;;;25.70;72.50;;;;;;5094405;28;20508;-81
2022/09/16 09:18:28;;;;;;;1.00;0.90;;;25.60;72.50;;;;;;5094189;28;20444;-82
2022/09/16 09:21:07;;;;;;;1.43;0.87;;;25.70;72.50;;;;;;5094360;28;20446;-82
2022/09/16 09:23:46;;;;;;;1.77;0.77;;;25.60;72.50;;;;;;5094196;28;20441;-82
2022/09/16 09:26:20;;;;;;;1.10;0.80;;;25.60;72.40;;;;;;5094210;28;20915;-82
2022/09/16 09:29:21;;;;;;;1.37;0.80;;;25.60;72.40;;;;;;5094336;28;20436;-82
2022/09/16 09:31:55;;;;;;;1.00;0.90;;;25.70;72.30;;;;;;5094207;28;20453;-82
2022/09/16 09:34:35;;;;;;;0.83;0.77;;;25.60;72.70;;;;;;5093678;28;20439;-82
2022/09/16 09:37:18;;;;;;;0.80;0.70;;;25.70;72.70;;;;;;5094309;28;20436;-89
2022/09/16 09:39:56;;;;;;;0.90;0.77;;;25.70;73.50;;;;;;5093964;28;20522;-82
2022/09/16 09:42:27;;;;;;;0.80;0.80;;;25.60;73.70;;;;;;5093948;28;20447;-82
2022/09/16 09:45:00;;;;;;;0.90;0.80;;;25.60;72.80;;;;;;5093634;28;20487;-85
2022/09/16 09:47:32;;;;;;;1.10;0.80;;;25.60;72.80;;;;;;5093889;28;20442;-87
2022/09/16 09:50:13;;;;;;;0.90;0.70;;;25.60;72.70;;;;;;5093677;28;20443;-82
2022/09/16 09:52:48;;;;;;;2.60;0.70;;;25.60;72.40;;;;;;5094050;28;20440;-88
2022/09/16 09:55:17;;;;;;;0.90;0.80;;;25.60;72.30;;;;;;5093732;28;20940;-82
2022/09/16 09:58:04;;;;;;;0.80;0.70;;;25.60;72.40;;;;;;5093846;28;20442;-82
2022/09/16 10:00:32;;;;;;;1.10;1.00;;;25.70;72.40;;;;;;5094198;28;20481;-81
2022/09/16 10:03:05;;;;;;;1.10;0.80;;;25.60;71.80;;;;;;5093655;28;20527;-81
2022/09/16 10:05:32;;;;;;;0.90;0.77;;;25.60;71.60;;;;;;5093621;28;20857;-81
2022/09/16 10:08:04;;;;;;;0.80;0.70;;;25.60;71.30;;;;;;5093800;28;20446;-82
2022/09/16 10:10:34;;;;;;;0.80;0.60;;;25.60;71.60;;;;;;5093779;28;20440;-87
2022/09/16 10:13:08;;;;;;;0.87;0.73;;;25.60;71.50;;;;;;5094008;28;20439;-89
2022/09/16 10:15:36;;;;;;;0.80;0.63;;;25.60;71.60;;;;;;5093534;28;20550;-81
2022/09/16 10:18:12;;;;;;;0.90;0.80;;;25.60;71.90;;;;;;5093515;28;20491;-88
2022/09/16 10:20:41;;;;;;;1.10;0.93;;;25.60;71.60;;;;;;5093309;28;20443;-81
2022/09/16 10:23:11;;;;;;;0.90;0.80;;;25.60;71.30;;;;;;5093443;28;20793;-81
2022/09/16 10:25:38;;;;;;;0.87;0.80;;;25.60;71.30;;;;;;5092962;28;20479;-81
2022/09/16 10:28:17;;;;;;;0.80;0.60;;;25.60;71.20;;;;;;5093544;28;20447;-82
2022/09/16 10:30:49;;;;;;;1.10;0.93;;;25.60;70.90;;;;;;5093446;28;20471;-81
2022/09/16 10:33:23;;;;;;;1.00;0.90;;;25.60;70.80;;;;;;5093328;28;20935;-81
2022/09/16 10:35:56;;;;;;;1.00;0.80;;;25.70;70.90;;;;;;5093324;28;20439;-81
2022/09/16 10:38:26;;;;;;;0.90;0.80;;;25.60;71.00;;;;;;5093419;28;20443;-82
2022/09/16 10:40:56;;;;;;;0.83;0.70;;;25.60;70.80;;;;;;5093256;28;20935;-89
2022/09/16 10:43:26;;;;;;;0.90;0.73;;;25.60;70.90;;;;;;5093509;28;20444;-83
2022/09/16 10:45:54;;;;;;;0.80;0.70;;;25.60;71.20;;;;;;5096779;28;21024;-82
2022/09/16 10:48:24;;;;;;;0.90;0.80;;;25.60;71.00;;;;;;5097132;28;20452;-89
2022/09/16 10:50:58;;;;;;;0.83;0.80;;;25.60;71.30;;;;;;5097401;28;20440;-82
2022/09/16 10:53:33;;;;;;;0.90;0.77;;;25.60;71.40;;;;;;5097070;28;20440;-82
2022/09/16 10:56:02;;;;;;;1.10;0.80;;;25.70;71.70;;;;;;5097206;28;20438;-87
2022/09/16 10:58:29;;;;;;;0.90;0.70;;;25.60;70.90;;;;;;5097017;28;20484;-85
2022/09/16 11:01:13;;;;;;;0.90;0.70;;;25.60;70.40;;;;;;5096785;28;20462;-81
2022/09/16 11:04:07;;;;;;;1.13;0.70;;;25.70;70.30;;;;;;5096928;28;20523;-82
2022/09/16 11:06:43;;;;;;;0.83;0.70;;;25.70;70.00;;;;;;5096727;28;20484;-88
2022/09/16 11:09:19;;;;;;;0.90;0.70;;;25.60;70.20;;;;;;5096755;28;20443;-81
2022/09/16 11:12:05;;;;;;;0.80;0.70;;;25.60;69.60;;;;;;5096620;28;20443;-81
2022/09/16 11:14:41;;;;;;;0.80;0.70;;;25.60;69.70;;;;;;5096551;28;20438;-83
2022/09/16 11:17:27;;;;;;;0.90;0.70;;;25.60;69.50;;;;;;5096849;28;20470;-82
2022/09/16 11:20:21;;;;;;;0.80;0.70;;;25.60;69.50;;;;;;5096460;28;20552;-82
2022/09/16 11:22:57;;;;;;;1.40;0.80;;;25.60;69.60;;;;;;5096445;28;20432;-82
2022/09/16 11:25:37;;;;;;;0.83;0.80;;;25.60;70.30;;;;;;5096329;28;20479;-82
2022/09/16 11:28:21;;;;;;;1.10;0.83;;;25.70;70.60;;;;;;5096770;28;20477;-88
2022/09/16 11:30:55;;;;;;;1.00;0.70;;;25.60;70.40;;;;;;5096421;28;20470;-83
2022/09/16 11:33:35;;;;;;;0.90;0.80;;;25.60;70.80;;;;;;5096686;28;20438;-82
2022/09/16 11:36:14;;;;;;;0.90;0.73;;;25.60;70.30;;;;;;5096271;28;20535;-83
2022/09/16 11:38:49;;;;;;;0.87;0.73;;;25.60;70.60;;;;;;5096336;28;20447;-82
2022/09/16 11:41:22;;;;;;;0.80;0.70;;;25.60;70.90;;;;;;5096266;28;20439;-82
2022/09/16 11:44:23;;;;;;;0.80;0.60;;;25.60;70.10;;;;;;5096149;28;20440;-82
2022/09/16 11:47:01;;;;;;;0.80;0.60;;;25.70;69.60;;;;;;5081277;28;20447;-89
2022/09/16 11:49:44;;;;;;;0.90;0.70;;;25.60;69.60;;;;;;5096145;28;20827;-82
2022/09/16 11:52:29;;;;;;;0.80;0.60;;;25.60;69.40;;;;;;5095732;28;20915;-82
2022/09/16 11:55:12;;;;;;;1.03;0.80;;;25.60;69.10;;;;;;5096127;28;20522;-82
2022/09/16 11:57:42;;;;;;;0.80;0.70;;;25.60;68.90;;;;;;5095397;28;20447;-82
2022/09/16 12:00:12;;;;;;;1.00;0.90;;;25.60;68.90;;;;;;5077858;28;20442;-81
2022/09/16 12:02:45;;;;;;;0.80;0.60;;;25.60;68.80;;;;;;5095785;28;20435;-87
2022/09/16 12:05:18;;;;;;;0.90;0.70;;;25.60;68.70;;;;;;5095311;28;20476;-81
2022/09/16 12:07:51;;;;;;;0.80;0.70;;;25.60;68.70;;;;;;5095700;28;20789;-81
2022/09/16 12:10:23;;;;;;;0.97;0.77;;;25.60;68.80;;;;;;5095813;28;20439;-81
2022/09/16 12:12:56;;;;;;;0.80;0.70;;;25.60;68.70;;;;;;5095552;28;20527;-81
2022/09/16 12:15:28;;;;;;;0.90;0.60;;;25.60;68.80;;;;;;5095536;28;20489;-87
2022/09/16 12:17:58;;;;;;;0.93;0.80;;;25.60;68.80;;;;;;5095395;28;20444;-81
2022/09/16 12:20:31;;;;;;;0.80;0.70;;;25.60;68.70;;;;;;5095369;28;20503;-82
2022/09/16 12:23:04;;;;;;;1.10;0.70;;;25.60;68.70;;;;;;5095282;28;20444;-81
2022/09/16 12:25:38;;;;;;;0.80;0.70;;;25.60;68.70;;;;;;5095289;28;20475;-81
2022/09/16 12:28:16;;;;;;;0.90;0.77;;;25.60;68.80;;;;;;5095457;28;20436;-88
2022/09/16 12:30:46;;;;;;;0.83;0.67;;;25.70;69.80;;;;;;5094983;28;20546;-81
2022/09/16 12:33:18;;;;;;;0.90;0.70;;;25.60;68.90;;;;;;5095292;28;20443;-87
2022/09/16 12:35:54;;;;;;;0.90;0.80;;;25.60;68.90;;;;;;5095341;28;20439;-88
2022/09/16 12:38:21;;;;;;;1.00;0.80;;;25.60;68.90;;;;;;5095125;28;20436;-81
2022/09/16 12:41:01;;;;;;;1.17;0.90;;;25.60;69.00;;;;;;5094958;28;20447;-82
2022/09/16 12:43:55;;;;;;;1.00;0.80;;;25.60;69.00;;;;;;5094831;28;20471;-82
2022/09/16 12:46:53;;;;;;;0.97;0.87;;;25.60;69.00;;;;;;5095019;28;20540;-81
2022/09/16 12:49:52;;;;;;;0.90;0.70;;;25.60;69.00;;;;;;5094785;28;21003;-81
2022/09/16 12:52:32;;;;;;;0.80;0.60;;;25.60;69.20;;;;;;5094955;28;20443;-82
2022/09/16 12:55:37;;;;;;;0.80;0.70;;;25.60;69.30;;;;;;5094828;28;20926;-85
2022/09/16 12:58:28;;;;;;;0.90;0.70;;;25.60;69.40;;;;;;5094745;28;20918;-82
2022/09/16 13:01:03;;;;;;;0.80;0.70;;;25.50;69.50;;;;;;5094610;28;20464;-82
2022/09/16 13:03:32;;;;;;;0.80;0.70;;;25.50;69.50;;;;;;5094436;28;20439;-82
2022/09/16 13:06:05;;;;;;;1.10;0.60;;;25.50;69.50;;;;;;5094443;28;20492;-84
2022/09/16 13:08:34;;;;;;;1.03;0.80;;;25.50;69.50;;;;;;5093649;28;20462;-89
2022/09/16 13:11:05;;;;;;;0.97;0.80;;;25.50;69.40;;;;;;5094504;28;20438;-89